الصفحة الرئيسية
METAR-TAF:

METAR-TAF

مطار :

Juigalpa, نيكاراغوا

دائرة عرض: 12-06N, خط طول: 085-22W, ارتفاع: 90 متر

مراقبة الطقس الحالي

تاريخ ووقت الإصدار 1ساعة و 7 دقيقة قبل الساعة 15:00UTC
ريح 4 عقدة من الشرق
درجة الحرارة 29°درجة مئوية
الرطوبة 70%
ضغط 1013 hPa
الرؤية 10 كم أو أكثر
غيوم متفرقة على ارتفاع 2000 قدم

METAR: MNJU 241500Z 08004KT 9999 SCT020 29/23 Q1013

زمن: 10:07 (16:07 UTC)


TAF: مفقودة

أرصاد الطقس والتوقعات من أكثر من 4000 مطار (تقارير الطقس للمطار METAR والتنبؤ بالطقس بالمطارTAF).

المحطات المتاحة هي النقط الصفراء والحمراء على الخريطة.

حرك المؤشر فوق النقطة لمعرفة اسم المحطة.

ثم انقر لمعرفة أرصاد وتوقعات الطقس.

لتغيير الخارطة: اضغط على الأزرار الخضراء مع رمز الصليب الأسود للتكبير. على الزر الأخضر مع شرطة للتصغير، أو على الأسهم الخضراء للخرائط المجاورة.


METAR-TAF: